Historique des stations

Station météo de Saint-Firmin-des-Bois

Altitude de la station : 148 m







Données météorologiques pour le 21/10/2021
Date
Heure
Températures Humidité Point de rosée Vitesse
du vent
Direction Rafales Windchill Pression Pluviométrie
Cumul
Date
Heure
Températures Humidité Point de rosée Vitesse
du vent
Direction Rafales Windchill Pression Pluviométrie
Cumul
21/10/2021 14:3015.3 °C71 %10.0 °C11 km/hSSO45 km/h15.0 1014 hPa-
21/10/2021 14:1515.4 °C71 %10.0 °C11 km/hSO45 km/h15.0 1014 hPa-
21/10/2021 14:0015.1 °C71 %10.0 °C8 km/hSSO45 km/h15.0 1015 hPa-
21/10/2021 13:4515.1 °C69 %9.4 °C13 km/hSO45 km/h13.9 1015 hPa-
21/10/2021 13:3015.3 °C69 %9.4 °C6 km/hSO45 km/h15.6 1015 hPa-
21/10/2021 13:1515.3 °C69 %9.4 °C14 km/hOSO45 km/h14.4 1015 hPa-
21/10/2021 13:0014.8 °C70 %9.4 °C21 km/hOSO45 km/h12.8 1015 hPa-
21/10/2021 12:4514.9 °C72 %10.0 °C8 km/hSO45 km/h15.0 1015 hPa-
21/10/2021 12:3014.8 °C70 %9.4 °C6 km/hOSO45 km/h15.0 1015 hPa-
21/10/2021 12:1414.4 °C72 %9.4 °C11 km/hO45 km/h13.3 1015 hPa-
21/10/2021 11:5914.1 °C75 %9.4 °C10 km/hSSO45 km/h13.3 1015 hPa-
21/10/2021 11:4413.7 °C75 %9.4 °C8 km/hSSO45 km/h13.3 1015 hPa-
21/10/2021 11:2913.3 °C77 %9.4 °C8 km/hSO45 km/h12.8 1015 hPa-
21/10/2021 11:1412.6 °C78 %8.9 °C11 km/hOSO45 km/h11.7 1015 hPa-
21/10/2021 10:5912.2 °C80 %8.9 °C8 km/hSO45 km/h11.7 1015 hPa-
21/10/2021 10:4411.9 °C83 %8.9 °C5 km/hSSO45 km/h11.7 1015 hPa-
21/10/2021 10:2911.6 °C84 %8.9 °C10 km/hSSO45 km/h10.6 1015 hPa-
21/10/2021 10:1411.2 °C85 %8.9 °C6 km/hSO45 km/h11.1 1015 hPa-
21/10/2021 09:5911.0 °C85 %8.9 °C6 km/hOSO45 km/h11.1 1015 hPa-
21/10/2021 09:4410.7 °C86 %8.3 °C5 km/hSO45 km/h10.6 1015 hPa-
21/10/2021 09:2910.5 °C86 %8.3 °C8 km/hSO45 km/h9.4 1014 hPa-
21/10/2021 09:1410.4 °C86 %8.3 °C5 km/hSO45 km/h10.6 1014 hPa-
21/10/2021 08:5910.4 °C85 %7.8 °C6 km/hSO45 km/h10.6 1014 hPa-
21/10/2021 08:4410.4 °C84 %7.8 °C6 km/hOSO45 km/h10.6 1014 hPa-
21/10/2021 08:2910.6 °C83 %7.8 °C5 km/hOSO45 km/h10.6 1013 hPa-
21/10/2021 08:1410.9 °C82 %7.8 °C6 km/hOSO45 km/h11.1 1013 hPa-
21/10/2021 07:5810.8 °C83 %7.8 °C5 km/hOSO45 km/h10.6 1013 hPa-
21/10/2021 07:4410.9 °C83 %8.3 °C8 km/hSO45 km/h10.0 1013 hPa-
21/10/2021 07:2911.2 °C82 %8.3 °C8 km/hOSO45 km/h10.0 1012 hPa-
21/10/2021 07:1411.7 °C82 %8.9 °C3 km/hONO45 km/h11.7 1012 hPa-
21/10/2021 06:5912.0 °C78 %8.3 °C5 km/hO45 km/h12.2 1012 hPa-
21/10/2021 06:4411.9 °C77 %7.8 °C6 km/hO45 km/h12.2 1011 hPa-
21/10/2021 06:2912.2 °C76 %8.3 °C13 km/hO45 km/h10.6 1011 hPa-
21/10/2021 06:1412.5 °C75 %8.3 °C8 km/hONO45 km/h12.2 1010 hPa-
21/10/2021 05:5912.6 °C75 %8.3 °C10 km/hO45 km/h11.7 1010 hPa-
21/10/2021 05:4412.7 °C75 %8.3 °C8 km/hN45 km/h12.2 1009 hPa-
21/10/2021 05:2912.8 °C74 %8.3 °C16 km/hOSO45 km/h10.6 1009 hPa-
21/10/2021 05:1412.9 °C73 %8.3 °C13 km/hO45 km/h11.1 1008 hPa-
21/10/2021 05:0013.1 °C72 %8.3 °C10 km/hSO45 km/h12.8 1008 hPa-
21/10/2021 04:4513.1 °C72 %8.3 °C23 km/hOSO45 km/h10.6 1007 hPa-
21/10/2021 04:3013.2 °C72 %8.3 °C10 km/hSSO45 km/h12.8 1007 hPa-
21/10/2021 04:1513.2 °C73 %8.3 °C16 km/hOSO45 km/h11.1 1006 hPa-
21/10/2021 04:0013.3 °C73 %8.3 °C10 km/hSSO45 km/h12.8 1006 hPa-
21/10/2021 03:4413.3 °C75 %8.9 °C21 km/hOSO45 km/h10.6 1005 hPa-
21/10/2021 03:2913.6 °C74 %8.9 °C16 km/hOSO45 km/h11.7 1005 hPa-
21/10/2021 03:1413.7 °C74 %9.4 °C27 km/hOSO43 km/h10.6 1005 hPa-
21/10/2021 02:5913.8 °C73 %8.9 °C21 km/hOSO43 km/h11.1 1004 hPa-
21/10/2021 02:4413.8 °C74 %9.4 °C18 km/hSO43 km/h11.7 1004 hPa-
21/10/2021 02:2913.7 °C75 %9.4 °C13 km/hOSO42 km/h12.8 1004 hPa-
21/10/2021 02:1413.4 °C77 %9.4 °C13 km/hSO42 km/h11.7 1004 hPa-
21/10/2021 01:5913.6 °C78 %10.0 °C10 km/hOSO42 km/h12.8 1004 hPa-
21/10/2021 01:4413.6 °C78 %10.0 °C13 km/hSO42 km/h11.7 1004 hPa-
21/10/2021 01:2913.6 °C78 %10.0 °C18 km/hO42 km/h11.7 1004 hPa-
21/10/2021 01:1413.8 °C77 %10.0 °C14 km/hSO42 km/h12.2 1003 hPa-
21/10/2021 00:5913.9 °C77 %10.0 °C13 km/hSSO42 km/h12.8 1004 hPa-
21/10/2021 00:4414.2 °C78 %10.6 °C18 km/hSO39 km/h12.2 1004 hPa-
21/10/2021 00:2914.4 °C79 %11.1 °C26 km/hOSO34 km/h11.1 1004 hPa-
21/10/2021 00:1414.6 °C83 %11.7 °C27 km/hOSO31 km/h11.1 1004 hPa-


Minima :

Température : 10.4 °C
Humidité : 69 %
Point de rosée : 7.8 °C
Vent moyen : 3 km/h
Windchill : 9.4
Pression atm. : 1003 hPa
Maxima :

Température : 15.4 °C
Humidité : 86 %
Point de rosée : 11.7 °C
Vent moyen : 27 km/h
Windchill : 15.6
Pression atm. : 1015 hPa
Rafales max : 45 km/h
Cumul de pluie sur 24H : 0 mm

Saint-Firmin-des-Bois est une commune du département Loiret (45).
La station météorologique du réseau de l'association la plus proche de Saint-Firmin-des-Bois est celle de Cudot



Icône Facebook Association Météo Centre Icône Twitter Association Météo Centre Icône Chaîne Youtube Association Météo Centre Icône contact Association Météo Centre Icône Insta Association Météo Centre